sensor_id;sensor_type;location;lat;lon;timestamp;P1;durP1;ratioP1;P2;durP2;ratioP2
1412;SDS011;701;52.526;13.408;2022-12-18T00:01:12;36.92;;;12.95;;
1412;SDS011;701;52.526;13.408;2022-12-18T00:03:43;33.35;;;10.80;;
1412;SDS011;701;52.526;13.408;2022-12-18T00:06:09;32.72;;;11.93;;
1412;SDS011;701;52.526;13.408;2022-12-18T00:08:35;38.43;;;12.03;;
1412;SDS011;701;52.526;13.408;2022-12-18T00:11:04;34.20;;;11.80;;
1412;SDS011;701;52.526;13.408;2022-12-18T00:13:31;35.05;;;13.10;;
1412;SDS011;701;52.526;13.408;2022-12-18T00:16:01;44.23;;;12.73;;
1412;SDS011;701;52.526;13.408;2022-12-18T00:18:28;36.55;;;12.88;;
1412;SDS011;701;52.526;13.408;2022-12-18T00:20:54;43.53;;;12.97;;
1412;SDS011;701;52.526;13.408;2022-12-18T00:23:25;36.92;;;11.95;;
1412;SDS011;701;52.526;13.408;2022-12-18T00:25:51;36.58;;;11.85;;
1412;SDS011;701;52.526;13.408;2022-12-18T00:28:16;34.50;;;11.20;;
1412;SDS011;701;52.526;13.408;2022-12-18T00:30:42;35.65;;;11.63;;
1412;SDS011;701;52.526;13.408;2022-12-18T00:33:08;30.83;;;11.50;;
1412;SDS011;701;52.526;13.408;2022-12-18T00:35:34;38.53;;;11.77;;
1412;SDS011;701;52.526;13.408;2022-12-18T00:37:59;34.03;;;12.00;;
1412;SDS011;701;52.526;13.408;2022-12-18T00:40:25;35.22;;;11.23;;
1412;SDS011;701;52.526;13.408;2022-12-18T00:42:52;34.53;;;12.40;;
1412;SDS011;701;52.526;13.408;2022-12-18T00:45:22;32.65;;;11.85;;
1412;SDS011;701;52.526;13.408;2022-12-18T00:47:53;43.42;;;13.70;;
1412;SDS011;701;52.526;13.408;2022-12-18T00:50:20;36.40;;;12.07;;
1412;SDS011;701;52.526;13.408;2022-12-18T00:52:47;36.78;;;12.30;;
1412;SDS011;701;52.526;13.408;2022-12-18T00:55:13;30.07;;;11.27;;
1412;SDS011;701;52.526;13.408;2022-12-18T00:57:39;34.95;;;11.98;;
1412;SDS011;701;52.526;13.408;2022-12-18T01:00:06;34.33;;;11.35;;
1412;SDS011;701;52.526;13.408;2022-12-18T01:02:33;36.75;;;11.00;;
1412;SDS011;701;52.526;13.408;2022-12-18T01:04:59;34.97;;;11.10;;
1412;SDS011;701;52.526;13.408;2022-12-18T01:07:25;29.17;;;10.85;;
1412;SDS011;701;52.526;13.408;2022-12-18T01:09:51;31.67;;;10.70;;
1412;SDS011;701;52.526;13.408;2022-12-18T01:12:16;33.20;;;11.10;;
1412;SDS011;701;52.526;13.408;2022-12-18T01:14:42;31.60;;;10.52;;
1412;SDS011;701;52.526;13.408;2022-12-18T01:17:08;34.03;;;11.20;;
1412;SDS011;701;52.526;13.408;2022-12-18T01:19:33;32.60;;;11.52;;
1412;SDS011;701;52.526;13.408;2022-12-18T01:21:59;36.30;;;12.03;;
1412;SDS011;701;52.526;13.408;2022-12-18T01:24:25;36.47;;;12.15;;
1412;SDS011;701;52.526;13.408;2022-12-18T01:26:50;38.27;;;11.57;;
1412;SDS011;701;52.526;13.408;2022-12-18T01:29:16;39.42;;;12.60;;
1412;SDS011;701;52.526;13.408;2022-12-18T01:31:42;33.77;;;11.90;;
1412;SDS011;701;52.526;13.408;2022-12-18T01:34:08;35.10;;;11.40;;
1412;SDS011;701;52.526;13.408;2022-12-18T01:36:35;35.97;;;11.98;;
1412;SDS011;701;52.526;13.408;2022-12-18T01:39:06;35.75;;;12.68;;
1412;SDS011;701;52.526;13.408;2022-12-18T01:41:35;36.35;;;12.02;;
1412;SDS011;701;52.526;13.408;2022-12-18T01:47:32;37.23;;;12.17;;
1412;SDS011;701;52.526;13.408;2022-12-18T01:52:43;36.45;;;12.35;;
1412;SDS011;701;52.526;13.408;2022-12-18T01:55:32;35.22;;;11.77;;
1412;SDS011;701;52.526;13.408;2022-12-18T01:58:04;38.97;;;12.55;;
1412;SDS011;701;52.526;13.408;2022-12-18T02:00:30;32.67;;;12.13;;
1412;SDS011;701;52.526;13.408;2022-12-18T02:02:56;35.33;;;13.07;;
1412;SDS011;701;52.526;13.408;2022-12-18T02:05:25;36.38;;;13.23;;
1412;SDS011;701;52.526;13.408;2022-12-18T02:10:27;37.10;;;12.73;;
1412;SDS011;701;52.526;13.408;2022-12-18T02:18:21;38.88;;;12.40;;
1412;SDS011;701;52.526;13.408;2022-12-18T02:21:02;43.05;;;13.68;;
1412;SDS011;701;52.526;13.408;2022-12-18T02:26:58;42.95;;;14.75;;
1412;SDS011;701;52.526;13.408;2022-12-18T02:29:31;49.05;;;14.23;;
1412;SDS011;701;52.526;13.408;2022-12-18T02:32:02;49.35;;;15.50;;
1412;SDS011;701;52.526;13.408;2022-12-18T02:34:33;40.88;;;14.13;;
1412;SDS011;701;52.526;13.408;2022-12-18T02:37:03;50.67;;;14.93;;
1412;SDS011;701;52.526;13.408;2022-12-18T02:39:34;60.72;;;15.95;;
1412;SDS011;701;52.526;13.408;2022-12-18T02:42:03;45.80;;;15.23;;
1412;SDS011;701;52.526;13.408;2022-12-18T02:44:34;49.03;;;14.23;;
1412;SDS011;701;52.526;13.408;2022-12-18T02:47:01;55.00;;;16.30;;
1412;SDS011;701;52.526;13.408;2022-12-18T02:49:32;51.00;;;15.20;;
1412;SDS011;701;52.526;13.408;2022-12-18T03:02:46;40.60;;;12.77;;
1412;SDS011;701;52.526;13.408;2022-12-18T03:05:27;51.75;;;17.50;;
1412;SDS011;701;52.526;13.408;2022-12-18T03:08:00;43.78;;;14.55;;
1412;SDS011;701;52.526;13.408;2022-12-18T03:10:31;50.58;;;13.55;;
1412;SDS011;701;52.526;13.408;2022-12-18T03:13:06;56.72;;;16.83;;
1412;SDS011;701;52.526;13.408;2022-12-18T03:15:39;53.50;;;16.60;;
1412;SDS011;701;52.526;13.408;2022-12-18T03:18:16;58.40;;;16.45;;
1412;SDS011;701;52.526;13.408;2022-12-18T03:20:51;55.97;;;18.02;;
1412;SDS011;701;52.526;13.408;2022-12-18T03:23:21;60.83;;;17.90;;
1412;SDS011;701;52.526;13.408;2022-12-18T03:25:50;59.35;;;17.70;;
1412;SDS011;701;52.526;13.408;2022-12-18T03:28:21;54.00;;;16.67;;
1412;SDS011;701;52.526;13.408;2022-12-18T03:30:55;54.35;;;16.67;;
1412;SDS011;701;52.526;13.408;2022-12-18T03:33:30;58.55;;;16.88;;
1412;SDS011;701;52.526;13.408;2022-12-18T03:35:57;58.08;;;16.92;;
1412;SDS011;701;52.526;13.408;2022-12-18T03:38:23;64.07;;;18.40;;
1412;SDS011;701;52.526;13.408;2022-12-18T03:51:50;55.93;;;15.90;;
1412;SDS011;701;52.526;13.408;2022-12-18T03:54:22;48.17;;;14.20;;
1412;SDS011;701;52.526;13.408;2022-12-18T03:56:58;46.67;;;14.48;;
1412;SDS011;701;52.526;13.408;2022-12-18T03:59:29;47.38;;;15.00;;
1412;SDS011;701;52.526;13.408;2022-12-18T04:01:57;51.15;;;15.75;;
1412;SDS011;701;52.526;13.408;2022-12-18T04:04:25;54.20;;;16.17;;
1412;SDS011;701;52.526;13.408;2022-12-18T04:06:53;50.90;;;15.13;;
1412;SDS011;701;52.526;13.408;2022-12-18T04:09:22;45.67;;;14.15;;
1412;SDS011;701;52.526;13.408;2022-12-18T04:11:49;44.80;;;13.95;;
1412;SDS011;701;52.526;13.408;2022-12-18T04:14:17;41.92;;;13.27;;
1412;SDS011;701;52.526;13.408;2022-12-18T04:16:43;44.10;;;14.37;;
1412;SDS011;701;52.526;13.408;2022-12-18T04:19:12;40.70;;;14.10;;
1412;SDS011;701;52.526;13.408;2022-12-18T04:21:40;36.75;;;12.60;;
1412;SDS011;701;52.526;13.408;2022-12-18T04:24:09;41.28;;;12.32;;
1412;SDS011;701;52.526;13.408;2022-12-18T04:26:38;41.28;;;12.23;;
1412;SDS011;701;52.526;13.408;2022-12-18T04:29:11;40.43;;;12.43;;
1412;SDS011;701;52.526;13.408;2022-12-18T04:31:37;41.58;;;12.73;;
1412;SDS011;701;52.526;13.408;2022-12-18T04:34:03;42.40;;;13.48;;
1412;SDS011;701;52.526;13.408;2022-12-18T04:36:35;38.97;;;11.93;;
1412;SDS011;701;52.526;13.408;2022-12-18T04:39:02;33.80;;;11.27;;
1412;SDS011;701;52.526;13.408;2022-12-18T04:41:29;37.88;;;12.10;;
1412;SDS011;701;52.526;13.408;2022-12-18T04:43:54;34.03;;;11.10;;
1412;SDS011;701;52.526;13.408;2022-12-18T04:46:20;37.10;;;12.10;;
1412;SDS011;701;52.526;13.408;2022-12-18T04:48:49;35.78;;;11.52;;
1412;SDS011;701;52.526;13.408;2022-12-18T04:51:14;35.67;;;11.95;;
1412;SDS011;701;52.526;13.408;2022-12-18T04:53:40;38.63;;;11.37;;
1412;SDS011;701;52.526;13.408;2022-12-18T04:56:07;35.13;;;12.15;;
1412;SDS011;701;52.526;13.408;2022-12-18T04:58:38;37.83;;;12.67;;
1412;SDS011;701;52.526;13.408;2022-12-18T05:01:04;38.72;;;12.23;;
1412;SDS011;701;52.526;13.408;2022-12-18T05:03:31;37.92;;;11.77;;
1412;SDS011;701;52.526;13.408;2022-12-18T05:05:56;37.97;;;11.85;;
1412;SDS011;701;52.526;13.408;2022-12-18T05:08:22;36.80;;;11.70;;
1412;SDS011;701;52.526;13.408;2022-12-18T05:10:48;36.15;;;11.88;;
1412;SDS011;701;52.526;13.408;2022-12-18T05:13:14;36.50;;;11.20;;
1412;SDS011;701;52.526;13.408;2022-12-18T05:15:40;38.00;;;12.45;;
1412;SDS011;701;52.526;13.408;2022-12-18T05:18:06;34.28;;;11.90;;
1412;SDS011;701;52.526;13.408;2022-12-18T05:20:33;28.80;;;10.80;;
1412;SDS011;701;52.526;13.408;2022-12-18T05:22:59;36.85;;;11.75;;
1412;SDS011;701;52.526;13.408;2022-12-18T05:25:25;34.60;;;11.93;;
1412;SDS011;701;52.526;13.408;2022-12-18T05:27:51;32.15;;;11.60;;
1412;SDS011;701;52.526;13.408;2022-12-18T05:30:16;39.53;;;12.38;;
1412;SDS011;701;52.526;13.408;2022-12-18T05:32:42;36.83;;;11.70;;
1412;SDS011;701;52.526;13.408;2022-12-18T05:35:08;35.30;;;11.23;;
1412;SDS011;701;52.526;13.408;2022-12-18T05:37:35;40.33;;;12.13;;
1412;SDS011;701;52.526;13.408;2022-12-18T05:40:02;43.05;;;11.85;;
1412;SDS011;701;52.526;13.408;2022-12-18T05:42:28;33.90;;;11.02;;
1412;SDS011;701;52.526;13.408;2022-12-18T05:44:55;33.88;;;11.50;;
1412;SDS011;701;52.526;13.408;2022-12-18T05:47:21;36.67;;;10.40;;
1412;SDS011;701;52.526;13.408;2022-12-18T05:49:46;39.72;;;12.10;;
1412;SDS011;701;52.526;13.408;2022-12-18T05:52:12;35.30;;;11.83;;
1412;SDS011;701;52.526;13.408;2022-12-18T05:54:38;41.10;;;12.73;;
1412;SDS011;701;52.526;13.408;2022-12-18T05:57:04;34.95;;;12.07;;
1412;SDS011;701;52.526;13.408;2022-12-18T05:59:30;38.60;;;11.23;;
1412;SDS011;701;52.526;13.408;2022-12-18T06:01:56;43.70;;;12.88;;
1412;SDS011;701;52.526;13.408;2022-12-18T06:04:21;37.70;;;12.37;;
1412;SDS011;701;52.526;13.408;2022-12-18T06:06:47;42.22;;;12.85;;
1412;SDS011;701;52.526;13.408;2022-12-18T06:09:13;48.07;;;13.70;;
1412;SDS011;701;52.526;13.408;2022-12-18T06:11:39;41.70;;;12.80;;
1412;SDS011;701;52.526;13.408;2022-12-18T06:14:05;44.77;;;12.70;;
1412;SDS011;701;52.526;13.408;2022-12-18T06:16:31;44.00;;;13.27;;
1412;SDS011;701;52.526;13.408;2022-12-18T06:18:58;52.00;;;13.32;;
1412;SDS011;701;52.526;13.408;2022-12-18T06:21:25;35.63;;;12.00;;
1412;SDS011;701;52.526;13.408;2022-12-18T06:23:51;44.17;;;13.65;;
1412;SDS011;701;52.526;13.408;2022-12-18T06:26:16;41.35;;;13.13;;
1412;SDS011;701;52.526;13.408;2022-12-18T06:28:42;37.97;;;12.27;;
1412;SDS011;701;52.526;13.408;2022-12-18T06:31:08;46.15;;;13.90;;
1412;SDS011;701;52.526;13.408;2022-12-18T06:33:35;42.77;;;12.97;;
1412;SDS011;701;52.526;13.408;2022-12-18T06:36:04;47.70;;;13.73;;
1412;SDS011;701;52.526;13.408;2022-12-18T06:38:35;44.40;;;12.85;;
1412;SDS011;701;52.526;13.408;2022-12-18T06:41:11;33.92;;;12.45;;
1412;SDS011;701;52.526;13.408;2022-12-18T06:43:39;48.90;;;13.52;;
1412;SDS011;701;52.526;13.408;2022-12-18T06:46:04;40.70;;;13.77;;
1412;SDS011;701;52.526;13.408;2022-12-18T06:48:30;43.80;;;14.73;;
1412;SDS011;701;52.526;13.408;2022-12-18T06:50:56;46.60;;;13.97;;
1412;SDS011;701;52.526;13.408;2022-12-18T06:53:22;48.95;;;14.20;;
1412;SDS011;701;52.526;13.408;2022-12-18T06:55:48;42.95;;;13.57;;
1412;SDS011;701;52.526;13.408;2022-12-18T06:58:14;45.55;;;14.02;;
1412;SDS011;701;52.526;13.408;2022-12-18T07:00:40;45.03;;;12.55;;
1412;SDS011;701;52.526;13.408;2022-12-18T07:03:05;42.97;;;14.20;;
1412;SDS011;701;52.526;13.408;2022-12-18T07:05:31;43.80;;;13.13;;
1412;SDS011;701;52.526;13.408;2022-12-18T07:07:57;42.87;;;13.93;;
1412;SDS011;701;52.526;13.408;2022-12-18T07:10:23;42.30;;;12.70;;
1412;SDS011;701;52.526;13.408;2022-12-18T07:12:49;44.13;;;12.95;;
1412;SDS011;701;52.526;13.408;2022-12-18T07:15:15;37.43;;;13.20;;
1412;SDS011;701;52.526;13.408;2022-12-18T07:17:40;39.00;;;13.32;;
1412;SDS011;701;52.526;13.408;2022-12-18T07:20:06;37.50;;;12.53;;
1412;SDS011;701;52.526;13.408;2022-12-18T07:22:32;42.63;;;13.30;;
1412;SDS011;701;52.526;13.408;2022-12-18T07:24:58;44.38;;;14.70;;
1412;SDS011;701;52.526;13.408;2022-12-18T07:27:24;50.87;;;13.83;;
1412;SDS011;701;52.526;13.408;2022-12-18T07:29:50;45.05;;;15.02;;
1412;SDS011;701;52.526;13.408;2022-12-18T07:32:15;50.47;;;14.70;;
1412;SDS011;701;52.526;13.408;2022-12-18T07:34:41;55.97;;;14.18;;
1412;SDS011;701;52.526;13.408;2022-12-18T07:37:07;44.13;;;14.27;;
1412;SDS011;701;52.526;13.408;2022-12-18T07:39:33;38.20;;;13.40;;
1412;SDS011;701;52.526;13.408;2022-12-18T07:41:58;42.20;;;12.77;;
1412;SDS011;701;52.526;13.408;2022-12-18T07:44:43;43.08;;;13.43;;
1412;SDS011;701;52.526;13.408;2022-12-18T07:47:09;46.10;;;12.77;;
1412;SDS011;701;52.526;13.408;2022-12-18T07:49:34;44.40;;;14.10;;
1412;SDS011;701;52.526;13.408;2022-12-18T07:52:00;40.83;;;12.27;;
1412;SDS011;701;52.526;13.408;2022-12-18T07:54:26;43.50;;;13.07;;
1412;SDS011;701;52.526;13.408;2022-12-18T07:56:52;43.22;;;13.50;;
1412;SDS011;701;52.526;13.408;2022-12-18T07:59:18;38.40;;;13.10;;
1412;SDS011;701;52.526;13.408;2022-12-18T08:01:44;38.22;;;13.10;;
1412;SDS011;701;52.526;13.408;2022-12-18T08:04:09;36.47;;;12.77;;
1412;SDS011;701;52.526;13.408;2022-12-18T08:06:35;49.53;;;14.93;;
1412;SDS011;701;52.526;13.408;2022-12-18T08:09:01;41.07;;;13.80;;
1412;SDS011;701;52.526;13.408;2022-12-18T08:11:27;47.45;;;13.85;;
1412;SDS011;701;52.526;13.408;2022-12-18T08:13:54;39.60;;;12.68;;
1412;SDS011;701;52.526;13.408;2022-12-18T08:16:20;42.75;;;13.10;;
1412;SDS011;701;52.526;13.408;2022-12-18T08:18:47;43.63;;;14.20;;
1412;SDS011;701;52.526;13.408;2022-12-18T08:21:14;42.83;;;13.70;;
1412;SDS011;701;52.526;13.408;2022-12-18T08:23:48;40.28;;;14.02;;
1412;SDS011;701;52.526;13.408;2022-12-18T08:26:15;42.25;;;13.15;;
1412;SDS011;701;52.526;13.408;2022-12-18T08:28:42;42.50;;;13.40;;
1412;SDS011;701;52.526;13.408;2022-12-18T08:31:08;37.60;;;11.53;;
1412;SDS011;701;52.526;13.408;2022-12-18T08:33:34;43.67;;;13.23;;
1412;SDS011;701;52.526;13.408;2022-12-18T08:36:05;37.60;;;11.90;;
1412;SDS011;701;52.526;13.408;2022-12-18T08:38:32;33.30;;;11.63;;
1412;SDS011;701;52.526;13.408;2022-12-18T08:41:01;34.53;;;12.10;;
1412;SDS011;701;52.526;13.408;2022-12-18T08:43:31;32.55;;;12.18;;
1412;SDS011;701;52.526;13.408;2022-12-18T08:46:16;34.40;;;10.85;;
1412;SDS011;701;52.526;13.408;2022-12-18T08:48:42;37.30;;;12.05;;
1412;SDS011;701;52.526;13.408;2022-12-18T08:51:08;32.58;;;11.85;;
1412;SDS011;701;52.526;13.408;2022-12-18T08:53:35;36.83;;;11.13;;
1412;SDS011;701;52.526;13.408;2022-12-18T08:56:01;36.88;;;12.13;;
1412;SDS011;701;52.526;13.408;2022-12-18T08:58:27;38.40;;;12.90;;
1412;SDS011;701;52.526;13.408;2022-12-18T09:00:53;38.55;;;12.77;;
1412;SDS011;701;52.526;13.408;2022-12-18T09:03:19;35.08;;;11.65;;
1412;SDS011;701;52.526;13.408;2022-12-18T09:05:47;31.63;;;10.40;;
1412;SDS011;701;52.526;13.408;2022-12-18T09:08:13;32.15;;;11.52;;
1412;SDS011;701;52.526;13.408;2022-12-18T09:10:48;36.40;;;12.80;;
1412;SDS011;701;52.526;13.408;2022-12-18T09:13:15;33.05;;;12.23;;
1412;SDS011;701;52.526;13.408;2022-12-18T09:15:46;39.10;;;13.20;;
1412;SDS011;701;52.526;13.408;2022-12-18T09:18:16;33.95;;;11.40;;
1412;SDS011;701;52.526;13.408;2022-12-18T09:20:43;34.97;;;11.87;;
1412;SDS011;701;52.526;13.408;2022-12-18T09:23:09;40.10;;;12.23;;
1412;SDS011;701;52.526;13.408;2022-12-18T09:25:36;35.28;;;11.98;;
1412;SDS011;701;52.526;13.408;2022-12-18T09:28:03;36.05;;;12.30;;
1412;SDS011;701;52.526;13.408;2022-12-18T09:30:31;35.47;;;12.60;;
1412;SDS011;701;52.526;13.408;2022-12-18T09:32:58;35.30;;;11.93;;
1412;SDS011;701;52.526;13.408;2022-12-18T09:35:25;34.15;;;12.93;;
1412;SDS011;701;52.526;13.408;2022-12-18T09:37:51;32.05;;;11.93;;
1412;SDS011;701;52.526;13.408;2022-12-18T09:40:18;39.97;;;13.65;;
1412;SDS011;701;52.526;13.408;2022-12-18T09:42:48;37.43;;;12.07;;
1412;SDS011;701;52.526;13.408;2022-12-18T09:45:18;35.20;;;12.02;;
1412;SDS011;701;52.526;13.408;2022-12-18T09:47:45;34.45;;;12.20;;
1412;SDS011;701;52.526;13.408;2022-12-18T09:53:22;36.42;;;12.73;;
1412;SDS011;701;52.526;13.408;2022-12-18T09:55:51;39.47;;;12.73;;
1412;SDS011;701;52.526;13.408;2022-12-18T10:00:56;36.17;;;11.52;;
1412;SDS011;701;52.526;13.408;2022-12-18T10:03:22;43.33;;;11.85;;
1412;SDS011;701;52.526;13.408;2022-12-18T10:06:12;33.83;;;12.40;;
1412;SDS011;701;52.526;13.408;2022-12-18T10:08:37;37.42;;;11.68;;
1412;SDS011;701;52.526;13.408;2022-12-18T10:13:57;39.70;;;12.35;;
1412;SDS011;701;52.526;13.408;2022-12-18T10:16:41;39.15;;;13.00;;
1412;SDS011;701;52.526;13.408;2022-12-18T10:19:37;41.50;;;12.53;;
1412;SDS011;701;52.526;13.408;2022-12-18T10:22:11;37.35;;;12.45;;
1412;SDS011;701;52.526;13.408;2022-12-18T10:27:24;39.88;;;13.13;;
1412;SDS011;701;52.526;13.408;2022-12-18T10:29:52;37.80;;;13.07;;
1412;SDS011;701;52.526;13.408;2022-12-18T10:32:25;43.77;;;14.17;;
1412;SDS011;701;52.526;13.408;2022-12-18T10:34:55;37.03;;;13.00;;
1412;SDS011;701;52.526;13.408;2022-12-18T10:37:24;41.80;;;13.00;;
1412;SDS011;701;52.526;13.408;2022-12-18T10:42:38;33.13;;;13.02;;
1412;SDS011;701;52.526;13.408;2022-12-18T10:45:08;39.30;;;13.20;;
1412;SDS011;701;52.526;13.408;2022-12-18T10:47:41;39.85;;;12.35;;
1412;SDS011;701;52.526;13.408;2022-12-18T10:50:18;45.50;;;13.18;;
1412;SDS011;701;52.526;13.408;2022-12-18T10:52:53;45.03;;;13.82;;
1412;SDS011;701;52.526;13.408;2022-12-18T10:55:22;42.37;;;13.43;;
1412;SDS011;701;52.526;13.408;2022-12-18T10:57:49;49.28;;;14.85;;
1412;SDS011;701;52.526;13.408;2022-12-18T11:00:21;38.80;;;11.88;;
1412;SDS011;701;52.526;13.408;2022-12-18T11:02:48;34.33;;;12.43;;
1412;SDS011;701;52.526;13.408;2022-12-18T11:05:27;41.40;;;13.88;;
1412;SDS011;701;52.526;13.408;2022-12-18T11:08:05;41.87;;;14.33;;
1412;SDS011;701;52.526;13.408;2022-12-18T11:10:44;39.95;;;13.73;;
1412;SDS011;701;52.526;13.408;2022-12-18T11:13:16;48.10;;;14.30;;
1412;SDS011;701;52.526;13.408;2022-12-18T11:15:45;44.85;;;13.55;;
1412;SDS011;701;52.526;13.408;2022-12-18T11:18:22;41.55;;;14.20;;
1412;SDS011;701;52.526;13.408;2022-12-18T11:21:07;42.67;;;13.83;;
1412;SDS011;701;52.526;13.408;2022-12-18T11:23:35;43.63;;;14.18;;
1412;SDS011;701;52.526;13.408;2022-12-18T11:26:03;43.22;;;14.50;;
1412;SDS011;701;52.526;13.408;2022-12-18T11:28:46;40.97;;;13.48;;
1412;SDS011;701;52.526;13.408;2022-12-18T11:31:25;39.42;;;12.50;;
1412;SDS011;701;52.526;13.408;2022-12-18T11:36:41;35.63;;;12.40;;
1412;SDS011;701;52.526;13.408;2022-12-18T11:39:12;36.33;;;13.02;;
1412;SDS011;701;52.526;13.408;2022-12-18T11:41:47;34.58;;;12.30;;
1412;SDS011;701;52.526;13.408;2022-12-18T11:44:38;33.75;;;11.95;;
1412;SDS011;701;52.526;13.408;2022-12-18T11:47:23;36.77;;;12.13;;
1412;SDS011;701;52.526;13.408;2022-12-18T11:50:05;36.67;;;12.10;;
1412;SDS011;701;52.526;13.408;2022-12-18T11:52:44;38.20;;;10.80;;
1412;SDS011;701;52.526;13.408;2022-12-18T12:00:22;33.43;;;11.17;;
1412;SDS011;701;52.526;13.408;2022-12-18T12:02:57;31.90;;;11.25;;
1412;SDS011;701;52.526;13.408;2022-12-18T12:08:20;32.88;;;11.60;;
1412;SDS011;701;52.526;13.408;2022-12-18T12:11:02;37.08;;;10.43;;
1412;SDS011;701;52.526;13.408;2022-12-18T12:16:45;28.40;;;10.52;;
1412;SDS011;701;52.526;13.408;2022-12-18T12:19:34;33.47;;;11.93;;
1412;SDS011;701;52.526;13.408;2022-12-18T12:25:24;39.05;;;11.40;;
1412;SDS011;701;52.526;13.408;2022-12-18T12:36:58;31.13;;;11.82;;
1412;SDS011;701;52.526;13.408;2022-12-18T12:39:49;35.83;;;12.07;;
1412;SDS011;701;52.526;13.408;2022-12-18T12:42:39;33.43;;;11.23;;
1412;SDS011;701;52.526;13.408;2022-12-18T12:45:29;34.10;;;11.98;;
1412;SDS011;701;52.526;13.408;2022-12-18T12:48:01;32.28;;;11.88;;
1412;SDS011;701;52.526;13.408;2022-12-18T12:53:59;35.63;;;12.10;;
1412;SDS011;701;52.526;13.408;2022-12-18T12:56:30;28.43;;;10.93;;
1412;SDS011;701;52.526;13.408;2022-12-18T12:59:13;35.40;;;10.60;;
1412;SDS011;701;52.526;13.408;2022-12-18T13:04:31;32.95;;;11.57;;
1412;SDS011;701;52.526;13.408;2022-12-18T13:13:07;32.15;;;11.23;;
1412;SDS011;701;52.526;13.408;2022-12-18T13:25:49;32.67;;;12.52;;
1412;SDS011;701;52.526;13.408;2022-12-18T13:28:18;31.73;;;11.20;;
1412;SDS011;701;52.526;13.408;2022-12-18T13:30:54;32.45;;;11.48;;
1412;SDS011;701;52.526;13.408;2022-12-18T13:38:45;34.22;;;13.23;;
1412;SDS011;701;52.526;13.408;2022-12-18T13:43:50;38.65;;;13.55;;
1412;SDS011;701;52.526;13.408;2022-12-18T13:46:25;31.05;;;11.93;;
1412;SDS011;701;52.526;13.408;2022-12-18T13:51:43;34.13;;;13.38;;
1412;SDS011;701;52.526;13.408;2022-12-18T13:56:53;26.73;;;11.70;;
1412;SDS011;701;52.526;13.408;2022-12-18T13:59:21;31.52;;;11.75;;
1412;SDS011;701;52.526;13.408;2022-12-18T14:04:34;27.90;;;12.02;;
1412;SDS011;701;52.526;13.408;2022-12-18T14:07:01;30.47;;;12.57;;
1412;SDS011;701;52.526;13.408;2022-12-18T14:09:31;34.42;;;13.23;;
1412;SDS011;701;52.526;13.408;2022-12-18T14:12:01;35.58;;;13.32;;
1412;SDS011;701;52.526;13.408;2022-12-18T14:14:47;30.75;;;12.88;;
1412;SDS011;701;52.526;13.408;2022-12-18T14:17:16;34.72;;;13.80;;
1412;SDS011;701;52.526;13.408;2022-12-18T14:19:46;32.67;;;13.23;;
1412;SDS011;701;52.526;13.408;2022-12-18T14:22:16;31.63;;;13.02;;
1412;SDS011;701;52.526;13.408;2022-12-18T14:24:44;32.90;;;14.10;;
1412;SDS011;701;52.526;13.408;2022-12-18T14:27:21;35.13;;;14.10;;
1412;SDS011;701;52.526;13.408;2022-12-18T14:29:49;36.55;;;13.80;;
1412;SDS011;701;52.526;13.408;2022-12-18T14:32:19;37.53;;;13.70;;
1412;SDS011;701;52.526;13.408;2022-12-18T14:34:49;37.20;;;13.25;;
1412;SDS011;701;52.526;13.408;2022-12-18T14:37:17;35.83;;;14.02;;
1412;SDS011;701;52.526;13.408;2022-12-18T14:39:59;36.85;;;15.15;;
1412;SDS011;701;52.526;13.408;2022-12-18T14:42:29;36.25;;;13.48;;
1412;SDS011;701;52.526;13.408;2022-12-18T14:45:39;35.37;;;14.50;;
1412;SDS011;701;52.526;13.408;2022-12-18T14:48:07;32.25;;;12.65;;
1412;SDS011;701;52.526;13.408;2022-12-18T14:50:36;30.80;;;13.20;;
1412;SDS011;701;52.526;13.408;2022-12-18T14:53:02;28.55;;;11.82;;
1412;SDS011;701;52.526;13.408;2022-12-18T14:55:28;31.27;;;11.98;;
1412;SDS011;701;52.526;13.408;2022-12-18T14:57:54;28.73;;;11.90;;
1412;SDS011;701;52.526;13.408;2022-12-18T15:00:24;34.38;;;12.93;;
1412;SDS011;701;52.526;13.408;2022-12-18T15:02:53;30.25;;;11.32;;
1412;SDS011;701;52.526;13.408;2022-12-18T15:05:24;32.27;;;11.77;;
1412;SDS011;701;52.526;13.408;2022-12-18T15:07:53;29.45;;;13.15;;
1412;SDS011;701;52.526;13.408;2022-12-18T15:10:22;30.55;;;12.00;;
1412;SDS011;701;52.526;13.408;2022-12-18T15:26:11;34.57;;;12.90;;
1412;SDS011;701;52.526;13.408;2022-12-18T15:33:41;29.52;;;11.48;;
1412;SDS011;701;52.526;13.408;2022-12-18T15:36:12;26.80;;;11.77;;
1412;SDS011;701;52.526;13.408;2022-12-18T15:38:40;31.37;;;12.07;;
1412;SDS011;701;52.526;13.408;2022-12-18T15:41:06;27.52;;;11.70;;
1412;SDS011;701;52.526;13.408;2022-12-18T15:43:38;29.60;;;12.15;;
1412;SDS011;701;52.526;13.408;2022-12-18T15:46:05;31.00;;;12.38;;
1412;SDS011;701;52.526;13.408;2022-12-18T15:48:34;27.30;;;11.37;;
1412;SDS011;701;52.526;13.408;2022-12-18T15:51:04;28.90;;;11.65;;
1412;SDS011;701;52.526;13.408;2022-12-18T15:53:35;32.55;;;11.80;;
1412;SDS011;701;52.526;13.408;2022-12-18T15:56:00;31.73;;;12.50;;
1412;SDS011;701;52.526;13.408;2022-12-18T15:58:45;28.83;;;12.23;;
1412;SDS011;701;52.526;13.408;2022-12-18T16:01:11;30.38;;;12.85;;
1412;SDS011;701;52.526;13.408;2022-12-18T16:03:51;33.45;;;13.35;;
1412;SDS011;701;52.526;13.408;2022-12-18T16:06:16;30.33;;;12.17;;
1412;SDS011;701;52.526;13.408;2022-12-18T16:08:42;30.60;;;12.82;;
1412;SDS011;701;52.526;13.408;2022-12-18T16:11:14;30.00;;;12.30;;
1412;SDS011;701;52.526;13.408;2022-12-18T16:13:45;28.17;;;11.85;;
1412;SDS011;701;52.526;13.408;2022-12-18T16:16:10;29.83;;;12.43;;
1412;SDS011;701;52.526;13.408;2022-12-18T16:18:36;28.83;;;12.02;;
1412;SDS011;701;52.526;13.408;2022-12-18T16:21:02;32.10;;;13.93;;
1412;SDS011;701;52.526;13.408;2022-12-18T16:23:28;30.27;;;11.95;;
1412;SDS011;701;52.526;13.408;2022-12-18T16:25:53;32.70;;;12.17;;
1412;SDS011;701;52.526;13.408;2022-12-18T16:28:19;26.42;;;11.77;;
1412;SDS011;701;52.526;13.408;2022-12-18T16:30:45;30.48;;;12.38;;
1412;SDS011;701;52.526;13.408;2022-12-18T16:33:12;32.37;;;13.23;;
1412;SDS011;701;52.526;13.408;2022-12-18T16:35:37;27.40;;;11.60;;
1412;SDS011;701;52.526;13.408;2022-12-18T16:38:03;29.73;;;12.73;;
1412;SDS011;701;52.526;13.408;2022-12-18T16:40:30;31.40;;;12.97;;
1412;SDS011;701;52.526;13.408;2022-12-18T16:42:57;31.63;;;13.00;;
1412;SDS011;701;52.526;13.408;2022-12-18T16:45:22;31.67;;;12.88;;
1412;SDS011;701;52.526;13.408;2022-12-18T16:47:51;30.55;;;11.68;;
1412;SDS011;701;52.526;13.408;2022-12-18T16:50:17;36.47;;;13.05;;
1412;SDS011;701;52.526;13.408;2022-12-18T16:52:43;32.13;;;12.17;;
1412;SDS011;701;52.526;13.408;2022-12-18T16:55:08;26.67;;;11.55;;
1412;SDS011;701;52.526;13.408;2022-12-18T16:57:34;32.85;;;12.38;;
1412;SDS011;701;52.526;13.408;2022-12-18T17:00:00;28.35;;;11.90;;
1412;SDS011;701;52.526;13.408;2022-12-18T17:02:26;33.28;;;12.20;;
1412;SDS011;701;52.526;13.408;2022-12-18T17:04:56;31.13;;;12.33;;
1412;SDS011;701;52.526;13.408;2022-12-18T17:07:23;29.52;;;11.73;;
1412;SDS011;701;52.526;13.408;2022-12-18T17:09:49;28.75;;;11.80;;
1412;SDS011;701;52.526;13.408;2022-12-18T17:12:16;28.10;;;13.20;;
1412;SDS011;701;52.526;13.408;2022-12-18T17:14:42;27.88;;;11.55;;
1412;SDS011;701;52.526;13.408;2022-12-18T17:17:08;31.33;;;12.40;;